createdAt,value
2022-09-11T00:01:28.347Z,15.07
2022-09-11T00:03:56.506Z,14.88
2022-09-11T00:06:29.912Z,15.45
2022-09-11T00:09:00.530Z,14.96
2022-09-11T00:11:29.835Z,15.44
2022-09-11T00:13:58.850Z,15.09
2022-09-11T00:16:28.753Z,15.11
2022-09-11T00:18:59.236Z,15.01
2022-09-11T00:21:27.348Z,14.79
2022-09-11T00:23:54.830Z,14.91
2022-09-11T00:26:24.675Z,15.49
2022-09-11T00:28:52.535Z,15.24
2022-09-11T00:31:23.838Z,15.08
2022-09-11T00:33:51.946Z,14.85
2022-09-11T00:36:21.047Z,15.28
2022-09-11T00:38:49.400Z,15.22
2022-09-11T00:41:19.486Z,14.86
2022-09-11T00:43:53.625Z,14.93
2022-09-11T00:46:24.535Z,15.36
2022-09-11T00:48:52.059Z,15.42
2022-09-11T00:51:23.984Z,15.57
2022-09-11T00:53:54.275Z,15.64
2022-09-11T00:56:24.074Z,15.41
2022-09-11T00:58:54.737Z,15.25
2022-09-11T01:01:23.790Z,15.42
2022-09-11T01:03:51.882Z,15.32
2022-09-11T01:06:21.174Z,15.07
2022-09-11T01:08:48.712Z,14.98
2022-09-11T01:11:34.317Z,15.36
2022-09-11T01:14:10.476Z,15.40
2022-09-11T01:16:44.391Z,15.20
2022-09-11T01:19:28.573Z,14.93
2022-09-11T01:22:14.702Z,15.25
2022-09-11T01:24:56.428Z,15.15
2022-09-11T01:27:42.994Z,15.40
2022-09-11T01:30:14.151Z,15.49
2022-09-11T01:33:12.152Z,15.38
2022-09-11T01:35:50.350Z,14.90
2022-09-11T01:38:23.088Z,15.30
2022-09-11T01:40:55.477Z,15.10
2022-09-11T01:43:28.891Z,14.90
2022-09-11T01:46:00.282Z,15.15
2022-09-11T01:48:32.828Z,14.89
2022-09-11T01:51:03.443Z,14.90
2022-09-11T01:53:37.366Z,15.05
2022-09-11T01:56:10.666Z,14.77
2022-09-11T01:58:42.023Z,14.82
2022-09-11T02:01:13.165Z,15.12
2022-09-11T02:03:45.694Z,14.88
2022-09-11T02:06:18.906Z,15.08
2022-09-11T02:08:51.672Z,14.79
2022-09-11T02:11:20.463Z,14.98
2022-09-11T02:13:56.830Z,15.12
2022-09-11T02:16:37.944Z,15.05
2022-09-11T02:19:07.144Z,15.13
2022-09-11T02:21:35.639Z,15.07
2022-09-11T02:24:04.090Z,14.90
2022-09-11T02:26:34.819Z,14.66
2022-09-11T02:29:04.207Z,14.83
2022-09-11T02:31:32.218Z,15.13
2022-09-11T02:33:59.732Z,15.38
2022-09-11T02:36:53.314Z,15.53
2022-09-11T02:39:35.149Z,15.14
2022-09-11T02:42:18.121Z,15.26
2022-09-11T02:44:59.947Z,15.32
2022-09-11T02:47:42.247Z,15.08
2022-09-11T02:50:15.226Z,15.16
2022-09-11T02:52:49.906Z,15.13
2022-09-11T02:55:24.019Z,15.05
2022-09-11T02:57:58.234Z,15.19
2022-09-11T03:00:27.562Z,15.12
2022-09-11T03:02:55.360Z,14.94
2022-09-11T03:05:23.172Z,15.19
2022-09-11T03:07:50.677Z,15.15
2022-09-11T03:10:18.156Z,15.20
2022-09-11T03:12:45.639Z,15.31
2022-09-11T03:15:13.398Z,15.21
2022-09-11T03:17:42.799Z,15.27
2022-09-11T03:20:10.754Z,15.25
2022-09-11T03:22:39.683Z,14.98
2022-09-11T03:25:08.143Z,14.98
2022-09-11T03:27:36.463Z,15.11
2022-09-11T03:30:04.030Z,15.04
2022-09-11T03:32:32.292Z,15.17
2022-09-11T03:35:02.313Z,15.31
2022-09-11T03:37:29.779Z,15.17
2022-09-11T03:39:57.278Z,14.87
2022-09-11T03:42:24.831Z,15.24
2022-09-11T03:44:52.306Z,15.10
2022-09-11T03:47:22.123Z,15.18
2022-09-11T03:49:49.767Z,15.02
2022-09-11T03:52:18.575Z,15.19
2022-09-11T03:54:47.576Z,15.08
2022-09-11T03:57:15.090Z,15.06
2022-09-11T03:59:42.543Z,15.09
2022-09-11T04:02:10.063Z,15.23
2022-09-11T04:04:37.711Z,15.28
2022-09-11T04:07:05.365Z,15.17
2022-09-11T04:09:34.322Z,15.04
2022-09-11T04:12:02.826Z,14.81
2022-09-11T04:14:30.319Z,14.90
2022-09-11T04:16:57.747Z,14.98
2022-09-11T04:19:25.243Z,15.11
2022-09-11T04:21:52.698Z,15.19
2022-09-11T04:24:20.160Z,15.05
2022-09-11T04:26:49.074Z,14.95
2022-09-11T04:29:17.731Z,14.81
2022-09-11T04:31:45.334Z,14.95
2022-09-11T04:34:12.842Z,15.19
2022-09-11T04:36:40.433Z,14.91
2022-09-11T04:39:07.912Z,14.79
2022-09-11T04:41:35.376Z,15.19
2022-09-11T04:44:05.747Z,15.29
2022-09-11T04:46:33.405Z,14.80
2022-09-11T04:49:02.158Z,14.98
2022-09-11T04:51:32.021Z,15.08
2022-09-11T04:54:00.975Z,15.14
2022-09-11T04:56:30.573Z,15.05
2022-09-11T04:59:00.005Z,14.94
2022-09-11T05:01:30.870Z,15.27
2022-09-11T05:04:00.430Z,15.17
2022-09-11T05:06:30.190Z,14.65
2022-09-11T05:09:01.427Z,14.84
2022-09-11T05:11:30.076Z,14.85
2022-09-11T05:14:00.031Z,14.90
2022-09-11T05:16:30.905Z,14.76
2022-09-11T05:19:00.081Z,14.71
2022-09-11T05:21:29.024Z,14.84
2022-09-11T05:23:58.543Z,14.44
2022-09-11T05:26:27.853Z,14.48
2022-09-11T05:28:56.194Z,14.19
2022-09-11T05:31:25.266Z,14.20
2022-09-11T05:33:55.821Z,14.06
2022-09-11T05:36:24.524Z,14.26
2022-09-11T05:38:52.772Z,14.28
2022-09-11T05:41:20.948Z,14.16
2022-09-11T05:43:48.571Z,14.23
2022-09-11T05:46:18.201Z,14.29
2022-09-11T05:48:46.176Z,14.31
2022-09-11T05:51:17.112Z,14.38
2022-09-11T05:53:46.019Z,14.51
2022-09-11T05:56:15.806Z,14.42
2022-09-11T05:58:43.716Z,14.48
2022-09-11T06:01:13.265Z,14.35
2022-09-11T06:03:41.168Z,14.21
2022-09-11T06:06:10.726Z,14.15
2022-09-11T06:08:40.092Z,14.37
2022-09-11T06:11:08.751Z,14.36
2022-09-11T06:13:39.388Z,14.21
2022-09-11T06:16:12.571Z,14.32
2022-09-11T06:18:42.184Z,14.22
2022-09-11T06:21:13.154Z,14.34
2022-09-11T06:23:42.142Z,14.60
2022-09-11T06:26:11.992Z,14.67
2022-09-11T06:28:40.239Z,14.71
2022-09-11T06:31:10.674Z,14.41
2022-09-11T06:33:40.248Z,14.33
2022-09-11T06:36:11.119Z,14.43
2022-09-11T06:38:39.119Z,14.58
2022-09-11T06:41:10.368Z,14.59
2022-09-11T06:43:37.832Z,14.84
2022-09-11T06:46:05.751Z,14.57
2022-09-11T06:48:33.682Z,14.49
2022-09-11T06:51:03.944Z,14.74
2022-09-11T06:53:31.486Z,14.84
2022-09-11T06:56:02.320Z,15.60
2022-09-11T06:58:31.485Z,16.40
2022-09-11T07:01:03.774Z,17.66
2022-09-11T07:03:31.612Z,17.79
2022-09-11T07:05:59.291Z,18.55
2022-09-11T07:08:26.861Z,17.63
2022-09-11T07:10:54.600Z,17.17
2022-09-11T07:13:24.342Z,18.09
2022-09-11T07:16:02.211Z,18.68
2022-09-11T07:18:34.117Z,18.45
2022-09-11T07:21:01.619Z,18.11
2022-09-11T07:23:29.080Z,17.34
2022-09-11T07:25:56.536Z,18.52
2022-09-11T07:28:25.376Z,19.07
2022-09-11T07:30:52.876Z,19.73
2022-09-11T07:33:23.027Z,19.92
2022-09-11T07:35:52.266Z,17.99
2022-09-11T07:38:19.712Z,18.30
2022-09-11T07:40:47.691Z,18.47
2022-09-11T07:43:15.271Z,18.11
2022-09-11T07:45:42.764Z,17.33
2022-09-11T07:48:10.316Z,17.49
2022-09-11T07:50:39.075Z,17.24
2022-09-11T07:53:07.083Z,17.50
2022-09-11T07:55:35.532Z,17.61
2022-09-11T07:58:02.951Z,17.68
2022-09-11T08:00:35.141Z,17.21
2022-09-11T08:03:04.621Z,17.14
2022-09-11T08:05:32.054Z,16.69
2022-09-11T08:08:00.809Z,16.93
2022-09-11T08:10:28.407Z,16.98
2022-09-11T08:12:59.552Z,16.95
2022-09-11T08:15:27.720Z,16.69
2022-09-11T08:17:55.154Z,16.57
2022-09-11T08:20:22.667Z,16.95
2022-09-11T08:22:50.370Z,16.89
2022-09-11T08:25:19.212Z,16.88
2022-09-11T08:27:46.620Z,16.45
2022-09-11T08:30:14.204Z,16.54
2022-09-11T08:32:41.626Z,16.37
2022-09-11T08:35:09.583Z,16.42
2022-09-11T08:37:37.013Z,16.63
2022-09-11T08:40:04.905Z,16.69
2022-09-11T08:42:35.628Z,16.91
2022-09-11T08:45:06.663Z,16.51
2022-09-11T08:47:37.831Z,16.69
2022-09-11T08:50:10.483Z,16.72
2022-09-11T08:52:38.438Z,16.96
2022-09-11T08:55:06.800Z,17.11
2022-09-11T08:57:45.004Z,17.65
2022-09-11T09:00:19.840Z,17.73
2022-09-11T09:03:21.342Z,17.50
2022-09-11T09:05:55.591Z,17.66
2022-09-11T09:08:40.378Z,17.17
2022-09-11T09:11:20.364Z,16.98
2022-09-11T09:14:05.831Z,16.54
2022-09-11T09:16:45.300Z,15.82
2022-09-11T09:19:17.341Z,16.13
2022-09-11T09:21:50.499Z,16.11
2022-09-11T09:24:20.287Z,15.92
2022-09-11T09:26:52.566Z,16.52
2022-09-11T09:29:23.842Z,16.85
2022-09-11T09:31:59.252Z,17.08
2022-09-11T09:34:34.694Z,16.99
2022-09-11T09:37:07.551Z,17.77
2022-09-11T09:39:36.509Z,18.05
2022-09-11T09:42:28.186Z,18.04
2022-09-11T09:45:20.143Z,18.49
2022-09-11T09:47:49.301Z,18.30
2022-09-11T09:50:20.169Z,18.02
2022-09-11T09:52:49.806Z,18.37
2022-09-11T09:55:19.919Z,18.60
2022-09-11T09:57:47.515Z,18.62
2022-09-11T10:00:19.951Z,19.15
2022-09-11T10:02:51.566Z,18.90
2022-09-11T10:05:24.999Z,17.85
2022-09-11T10:07:54.214Z,18.20
2022-09-11T10:10:24.832Z,18.70
2022-09-11T10:12:59.904Z,18.99
2022-09-11T10:15:42.895Z,18.05
2022-09-11T10:18:35.883Z,17.75
2022-09-11T10:21:16.737Z,18.19
2022-09-11T10:23:46.936Z,17.80
2022-09-11T10:26:18.042Z,18.30
2022-09-11T10:28:46.898Z,18.52
2022-09-11T10:31:17.381Z,18.30
2022-09-11T10:33:49.995Z,18.99
2022-09-11T10:36:23.439Z,19.65
2022-09-11T10:38:51.876Z,19.88
2022-09-11T10:41:22.868Z,19.18
2022-09-11T10:43:55.909Z,19.07
2022-09-11T10:46:39.871Z,18.77
2022-09-11T10:49:18.495Z,18.97
2022-09-11T10:52:00.000Z,19.46
2022-09-11T10:54:39.139Z,19.31
2022-09-11T10:57:16.110Z,19.40
2022-09-11T10:59:51.352Z,19.39
2022-09-11T11:02:28.498Z,19.54
2022-09-11T11:04:57.067Z,19.87
2022-09-11T11:07:45.110Z,19.87
2022-09-11T11:10:24.347Z,19.17
2022-09-11T11:13:05.117Z,19.17
2022-09-11T11:15:46.479Z,19.46
2022-09-11T11:18:31.259Z,19.05
2022-09-11T11:21:12.815Z,18.35
2022-09-11T11:23:51.648Z,18.74
2022-09-11T11:26:37.570Z,18.47
2022-09-11T11:29:31.824Z,18.88
2022-09-11T11:32:14.403Z,19.31
2022-09-11T11:35:03.058Z,19.41
2022-09-11T11:37:34.918Z,19.00
2022-09-11T11:40:06.493Z,19.29
2022-09-11T11:42:38.614Z,19.54
2022-09-11T11:45:11.546Z,19.06
2022-09-11T11:47:44.675Z,18.97
2022-09-11T11:50:21.311Z,19.57
2022-09-11T11:52:57.931Z,19.96
2022-09-11T11:55:27.898Z,19.91
2022-09-11T11:58:02.328Z,20.30
2022-09-11T12:00:31.530Z,19.80
2022-09-11T12:03:05.684Z,19.49
2022-09-11T12:05:36.188Z,19.07
2022-09-11T12:08:04.635Z,18.85
2022-09-11T12:10:35.357Z,18.80
2022-09-11T12:13:07.309Z,19.35
2022-09-11T12:15:35.658Z,19.11
2022-09-11T12:18:05.431Z,19.85
2022-09-11T12:20:40.710Z,19.50
2022-09-11T12:23:35.678Z,19.95
2022-09-11T12:26:19.779Z,21.38
2022-09-11T12:28:47.506Z,21.70
2022-09-11T12:31:16.558Z,22.28
2022-09-11T12:33:54.479Z,20.89
2022-09-11T12:36:30.902Z,20.41
2022-09-11T12:39:03.455Z,20.13
2022-09-11T12:41:33.703Z,21.19
2022-09-11T12:44:01.840Z,20.95
2022-09-11T12:47:11.829Z,20.91
2022-09-11T12:49:41.393Z,21.55
2022-09-11T12:52:24.796Z,22.02
2022-09-11T12:54:52.994Z,22.31
2022-09-11T12:57:27.131Z,22.37
2022-09-11T12:59:59.302Z,22.66
2022-09-11T13:02:34.276Z,22.61
2022-09-11T13:05:02.542Z,20.73
2022-09-11T13:07:44.302Z,21.01
2022-09-11T13:10:30.348Z,21.42
2022-09-11T13:12:59.230Z,21.90
2022-09-11T13:15:38.702Z,22.14
2022-09-11T13:18:43.666Z,22.09
2022-09-11T13:21:17.257Z,22.31
2022-09-11T13:23:46.963Z,23.16
2022-09-11T13:26:26.869Z,22.90
2022-09-11T13:28:57.908Z,21.56
2022-09-11T13:31:33.690Z,20.33
2022-09-11T13:34:03.769Z,19.55
2022-09-11T13:36:33.156Z,19.29
2022-09-11T13:39:04.983Z,19.48
2022-09-11T13:41:37.710Z,19.58
2022-09-11T13:44:11.380Z,19.60
2022-09-11T13:46:50.007Z,19.68
2022-09-11T13:49:29.809Z,19.31
2022-09-11T13:51:57.298Z,19.29
2022-09-11T13:54:30.151Z,19.21
2022-09-11T13:57:14.881Z,19.19
2022-09-11T13:59:48.178Z,19.48
2022-09-11T14:02:46.350Z,19.18
2022-09-11T14:05:20.462Z,19.44
2022-09-11T14:07:57.249Z,19.41
2022-09-11T14:10:29.955Z,19.20
2022-09-11T14:13:04.123Z,19.02
2022-09-11T14:15:40.064Z,18.85
2022-09-11T14:18:14.615Z,19.02
2022-09-11T14:20:45.712Z,19.01
2022-09-11T14:23:19.940Z,19.10
2022-09-11T14:26:14.752Z,19.55
2022-09-11T14:28:45.780Z,19.88
2022-09-11T14:31:14.956Z,19.90
2022-09-11T14:33:42.948Z,19.72
2022-09-11T14:36:19.405Z,19.70
2022-09-11T14:38:48.108Z,19.59
2022-09-11T14:41:16.922Z,19.60
2022-09-11T14:43:48.854Z,19.99
2022-09-11T14:46:16.905Z,19.59
2022-09-11T14:48:44.479Z,19.48
2022-09-11T14:51:13.684Z,19.13
2022-09-11T14:53:43.383Z,19.22
2022-09-11T14:56:11.092Z,19.38
2022-09-11T14:58:40.219Z,19.79
2022-09-11T15:01:07.681Z,20.43
2022-09-11T15:03:35.225Z,20.27
2022-09-11T15:06:02.738Z,20.28
2022-09-11T15:08:30.232Z,20.01
2022-09-11T15:10:57.667Z,20.57
2022-09-11T15:13:25.231Z,20.45
2022-09-11T15:15:54.045Z,19.96
2022-09-11T15:18:21.875Z,19.72
2022-09-11T15:20:49.343Z,19.55
2022-09-11T15:23:17.388Z,19.40
2022-09-11T15:25:44.908Z,19.11
2022-09-11T15:28:12.555Z,18.82
2022-09-11T15:30:40.025Z,18.74
2022-09-11T15:33:09.399Z,18.91
2022-09-11T15:35:36.863Z,19.18
2022-09-11T15:38:05.592Z,19.39
2022-09-11T15:40:33.212Z,19.35
2022-09-11T15:43:00.650Z,19.36
2022-09-11T15:45:28.128Z,18.90
2022-09-11T15:47:55.575Z,18.88
2022-09-11T15:50:28.279Z,19.21
2022-09-11T15:52:55.769Z,19.66
2022-09-11T15:55:23.292Z,19.44
2022-09-11T15:57:50.760Z,19.51
2022-09-11T16:00:18.345Z,19.25
2022-09-11T16:02:45.812Z,19.12
2022-09-11T16:05:14.431Z,19.08
2022-09-11T16:07:43.224Z,19.27
2022-09-11T16:10:10.971Z,19.03
2022-09-11T16:12:39.497Z,18.69
2022-09-11T16:15:07.968Z,18.43
2022-09-11T16:17:35.418Z,18.17
2022-09-11T16:20:03.287Z,18.19
2022-09-11T16:22:31.311Z,18.24
2022-09-11T16:25:00.421Z,18.74
2022-09-11T16:27:27.914Z,18.76
2022-09-11T16:32:43.300Z,18.12
2022-09-11T16:35:13.270Z,18.02
2022-09-11T16:37:41.204Z,17.88
2022-09-11T16:40:10.806Z,17.83
2022-09-11T16:42:38.292Z,18.07
2022-09-11T16:45:06.612Z,18.12
2022-09-11T16:47:34.598Z,17.99
2022-09-11T16:50:07.481Z,17.99
2022-09-11T16:52:35.583Z,18.47
2022-09-11T16:55:03.461Z,18.66
2022-09-11T16:57:32.465Z,18.53
2022-09-11T17:00:00.082Z,18.83
2022-09-11T17:02:27.806Z,18.90
2022-09-11T17:04:55.274Z,19.06
2022-09-11T17:07:23.680Z,19.02
2022-09-11T17:09:51.122Z,18.40
2022-09-11T17:12:18.585Z,18.29
2022-09-11T17:14:47.395Z,18.16
2022-09-11T17:17:14.856Z,18.01
2022-09-11T17:19:42.683Z,17.84
2022-09-11T17:22:10.260Z,18.02
2022-09-11T17:24:37.756Z,18.38
2022-09-11T17:27:05.514Z,18.42
2022-09-11T17:29:32.992Z,18.08
2022-09-11T17:32:26.139Z,18.08
2022-09-11T17:34:49.242Z,18.44
2022-09-11T17:37:16.966Z,18.71
2022-09-11T17:39:44.794Z,19.51
2022-09-11T17:42:13.456Z,19.56
2022-09-11T17:44:42.331Z,19.71
2022-09-11T17:47:11.172Z,19.89
2022-09-11T17:49:38.735Z,20.05
2022-09-11T17:52:07.196Z,20.04
2022-09-11T17:54:34.867Z,20.07
2022-09-11T17:57:02.408Z,20.06
2022-09-11T17:59:29.918Z,19.98
2022-09-11T18:01:58.982Z,19.98
2022-09-11T18:04:27.874Z,19.95
2022-09-11T18:06:55.336Z,19.73
2022-09-11T18:09:23.146Z,19.72
2022-09-11T18:11:53.779Z,19.58
2022-09-11T18:14:21.580Z,19.04
2022-09-11T18:16:49.288Z,19.25
2022-09-11T18:19:20.137Z,19.18
2022-09-11T18:21:50.504Z,19.26
2022-09-11T18:24:20.516Z,18.74
2022-09-11T18:26:50.712Z,18.36
2022-09-11T18:29:20.257Z,18.55
2022-09-11T18:31:50.144Z,18.80
2022-09-11T18:34:20.055Z,18.90
2022-09-11T18:36:49.654Z,18.79
2022-09-11T18:39:19.351Z,18.53
2022-09-11T18:41:48.274Z,18.51
2022-09-11T18:44:19.857Z,18.52
2022-09-11T18:46:47.889Z,18.49
2022-09-11T18:49:16.600Z,17.61
2022-09-11T18:51:44.318Z,17.97
2022-09-11T18:54:15.434Z,17.77
2022-09-11T18:56:43.549Z,17.27
2022-09-11T18:59:11.846Z,17.57
2022-09-11T19:01:39.936Z,17.39
2022-09-11T19:04:10.060Z,17.63
2022-09-11T19:06:39.490Z,17.47
2022-09-11T19:09:10.094Z,17.47
2022-09-11T19:11:39.461Z,17.42
2022-09-11T19:14:09.337Z,17.19
2022-09-11T19:16:37.920Z,16.60
2022-09-11T19:19:06.954Z,16.71
2022-09-11T19:21:35.125Z,16.34
2022-09-11T19:24:03.236Z,16.87
2022-09-11T19:26:32.598Z,16.95
2022-09-11T19:29:01.899Z,17.08
2022-09-11T19:31:30.357Z,17.07
2022-09-11T19:34:00.728Z,17.07
2022-09-11T19:36:30.140Z,16.73
2022-09-11T19:39:00.630Z,16.36
2022-09-11T19:41:30.940Z,16.25
2022-09-11T19:44:00.381Z,16.41
2022-09-11T19:46:31.523Z,16.53
2022-09-11T19:49:01.364Z,16.71
2022-09-11T19:51:30.780Z,16.73
2022-09-11T19:54:00.672Z,16.83
2022-09-11T19:56:29.220Z,16.93
2022-09-11T19:58:56.946Z,16.94
2022-09-11T20:01:26.339Z,16.92
2022-09-11T20:03:56.397Z,16.89
2022-09-11T20:06:25.513Z,16.84
2022-09-11T20:09:13.383Z,16.92
2022-09-11T20:11:41.583Z,17.02
2022-09-11T20:14:09.481Z,16.98
2022-09-11T20:16:37.168Z,17.06
2022-09-11T20:19:06.577Z,17.03
2022-09-11T20:21:36.005Z,17.10
2022-09-11T20:24:05.170Z,17.11
2022-09-11T20:26:33.327Z,17.09
2022-09-11T20:29:02.905Z,17.01
2022-09-11T20:31:32.431Z,16.93
2022-09-11T20:34:00.856Z,16.93
2022-09-11T20:36:30.211Z,17.00
2022-09-11T20:39:00.620Z,16.98
2022-09-11T20:41:30.443Z,16.97
2022-09-11T20:44:00.523Z,16.64
2022-09-11T20:46:28.233Z,16.52
2022-09-11T20:48:55.843Z,16.72
2022-09-11T20:51:24.138Z,16.76
2022-09-11T20:53:52.983Z,16.72
2022-09-11T20:56:23.405Z,16.73
2022-09-11T20:58:51.414Z,16.78
2022-09-11T21:01:22.315Z,16.78
2022-09-11T21:03:52.337Z,16.75
2022-09-11T21:06:25.386Z,16.79
2022-09-11T21:08:56.546Z,16.78
2022-09-11T21:11:24.487Z,16.78
2022-09-11T21:13:52.320Z,16.74
2022-09-11T21:16:20.531Z,16.75
2022-09-11T21:18:50.269Z,16.74
2022-09-11T21:21:18.745Z,16.66
2022-09-11T21:23:46.545Z,16.71
2022-09-11T21:26:18.059Z,16.74
2022-09-11T21:28:45.936Z,16.67
2022-09-11T21:31:13.964Z,16.53
2022-09-11T21:33:41.572Z,16.59
2022-09-11T21:36:09.182Z,16.53
2022-09-11T21:38:37.576Z,16.42
2022-09-11T21:41:06.953Z,16.37
2022-09-11T21:43:36.307Z,16.42
2022-09-11T21:46:05.287Z,16.49
2022-09-11T21:48:35.922Z,16.54
2022-09-11T21:51:07.848Z,16.59
2022-09-11T21:53:35.413Z,16.47
2022-09-11T21:56:03.363Z,16.33
2022-09-11T21:58:31.008Z,16.22
2022-09-11T22:01:05.870Z,16.30
2022-09-11T22:03:34.396Z,16.41
2022-09-11T22:06:06.540Z,16.57
2022-09-11T22:08:35.247Z,16.60
2022-09-11T22:11:04.202Z,16.76
2022-09-11T22:13:32.290Z,16.84
2022-09-11T22:16:00.327Z,16.89
2022-09-11T22:18:29.228Z,16.76
2022-09-11T22:21:00.346Z,16.81
2022-09-11T22:23:29.349Z,16.85
2022-09-11T22:26:00.496Z,16.88
2022-09-11T22:28:28.537Z,16.83
2022-09-11T22:30:56.229Z,16.79
2022-09-11T22:33:24.173Z,16.78
2022-09-11T22:35:53.064Z,16.81
2022-09-11T22:38:20.514Z,16.83
2022-09-11T22:40:53.149Z,16.80
2022-09-11T22:43:20.621Z,16.71
2022-09-11T22:45:52.045Z,16.36
2022-09-11T22:48:19.571Z,16.42
2022-09-11T22:50:47.593Z,16.44
2022-09-11T22:53:16.463Z,16.46
2022-09-11T22:55:44.738Z,16.36
2022-09-11T22:58:12.560Z,16.30
2022-09-11T23:00:40.947Z,16.42
2022-09-11T23:03:08.569Z,16.29
2022-09-11T23:05:53.961Z,16.21
2022-09-11T23:08:22.841Z,16.15
2022-09-11T23:10:50.266Z,16.10
2022-09-11T23:13:17.708Z,16.12
2022-09-11T23:15:45.166Z,16.16
2022-09-11T23:18:12.603Z,16.22
2022-09-11T23:20:40.080Z,16.20
2022-09-11T23:23:07.615Z,16.16
2022-09-11T23:25:42.096Z,16.18
2022-09-11T23:28:09.552Z,16.08
2022-09-11T23:30:39.228Z,16.04
2022-09-11T23:33:07.094Z,15.99
2022-09-11T23:35:34.729Z,15.94
2022-09-11T23:38:02.176Z,15.86
2022-09-11T23:40:33.326Z,15.68
2022-09-11T23:43:02.735Z,15.57
2022-09-11T23:45:30.403Z,15.56
2022-09-11T23:47:57.955Z,15.46
2022-09-11T23:50:25.403Z,15.47
2022-09-11T23:52:52.860Z,15.44
2022-09-11T23:55:20.432Z,15.41
2022-09-11T23:57:48.094Z,15.46
